sensor_id;sensor_type;location;lat;lon;timestamp;P1;durP1;ratioP1;P2;durP2;ratioP2
51491;SDS011;37569;50.548;8.778;2022-09-09T00:03:17;3.8;;;1.7;;
51491;SDS011;37569;50.548;8.778;2022-09-09T00:08:18;3.8;;;1.9;;
51491;SDS011;37569;50.548;8.778;2022-09-09T00:13:18;3.4;;;1.8;;
51491;SDS011;37569;50.548;8.778;2022-09-09T00:18:20;5.1;;;1.8;;
51491;SDS011;37569;50.548;8.778;2022-09-09T00:23:20;4.7;;;1.8;;
51491;SDS011;37569;50.548;8.778;2022-09-09T00:28:20;3.3;;;1.9;;
51491;SDS011;37569;50.548;8.778;2022-09-09T00:33:20;4.1;;;1.9;;
51491;SDS011;37569;50.548;8.778;2022-09-09T00:38:21;6.8;;;2;;
51491;SDS011;37569;50.548;8.778;2022-09-09T00:43:24;5.3;;;2;;
51491;SDS011;37569;50.548;8.778;2022-09-09T00:48:21;4.4;;;2;;
51491;SDS011;37569;50.548;8.778;2022-09-09T00:53:24;2.7;;;1.7;;
51491;SDS011;37569;50.548;8.778;2022-09-09T00:58:22;4;;;2.2;;
51491;SDS011;37569;50.548;8.778;2022-09-09T01:03:26;5.4;;;2;;
51491;SDS011;37569;50.548;8.778;2022-09-09T01:08:29;6.7;;;2;;
51491;SDS011;37569;50.548;8.778;2022-09-09T01:13:25;4.5;;;1.8;;
51491;SDS011;37569;50.548;8.778;2022-09-09T01:18:26;5;;;2;;
51491;SDS011;37569;50.548;8.778;2022-09-09T01:23:30;4.9;;;1.9;;
51491;SDS011;37569;50.548;8.778;2022-09-09T01:28:26;3.5;;;2;;
51491;SDS011;37569;50.548;8.778;2022-09-09T01:33:27;4.2;;;1.8;;
51491;SDS011;37569;50.548;8.778;2022-09-09T01:38:27;5.1;;;1.9;;
51491;SDS011;37569;50.548;8.778;2022-09-09T01:43:28;3.7;;;1.9;;
51491;SDS011;37569;50.548;8.778;2022-09-09T01:48:29;4;;;1.9;;
51491;SDS011;37569;50.548;8.778;2022-09-09T01:53:29;4.4;;;2.1;;
51491;SDS011;37569;50.548;8.778;2022-09-09T01:58:32;3.7;;;1.9;;
51491;SDS011;37569;50.548;8.778;2022-09-09T02:03:31;5.7;;;1.8;;
51491;SDS011;37569;50.548;8.778;2022-09-09T02:08:33;4;;;1.9;;
51491;SDS011;37569;50.548;8.778;2022-09-09T02:13:32;4.9;;;1.7;;
51491;SDS011;37569;50.548;8.778;2022-09-09T02:18:33;4;;;1.8;;
51491;SDS011;37569;50.548;8.778;2022-09-09T02:23:33;4.2;;;1.9;;
51491;SDS011;37569;50.548;8.778;2022-09-09T02:28:33;4.2;;;1.8;;
51491;SDS011;37569;50.548;8.778;2022-09-09T02:33:35;4.9;;;2.2;;
51491;SDS011;37569;50.548;8.778;2022-09-09T02:38:35;3.7;;;2;;
51491;SDS011;37569;50.548;8.778;2022-09-09T02:43:35;4.8;;;2;;
51491;SDS011;37569;50.548;8.778;2022-09-09T02:48:36;5.5;;;1.9;;
51491;SDS011;37569;50.548;8.778;2022-09-09T02:53:39;3.1;;;1.9;;
51491;SDS011;37569;50.548;8.778;2022-09-09T02:58:37;3.2;;;1.9;;
51491;SDS011;37569;50.548;8.778;2022-09-09T03:03:37;3.6;;;1.9;;
51491;SDS011;37569;50.548;8.778;2022-09-09T03:08:38;3.8;;;1.8;;
51491;SDS011;37569;50.548;8.778;2022-09-09T03:13:39;4.1;;;1.8;;
51491;SDS011;37569;50.548;8.778;2022-09-09T03:18:39;3.7;;;2;;
51491;SDS011;37569;50.548;8.778;2022-09-09T03:23:40;5.1;;;2.1;;
51491;SDS011;37569;50.548;8.778;2022-09-09T03:28:40;3.2;;;1.9;;
51491;SDS011;37569;50.548;8.778;2022-09-09T03:33:41;4.8;;;1.9;;
51491;SDS011;37569;50.548;8.778;2022-09-09T03:38:41;4.6;;;2.3;;
51491;SDS011;37569;50.548;8.778;2022-09-09T03:43:42;4.2;;;2.2;;
51491;SDS011;37569;50.548;8.778;2022-09-09T03:48:43;3.5;;;2.1;;
51491;SDS011;37569;50.548;8.778;2022-09-09T03:53:43;5.2;;;2.3;;
51491;SDS011;37569;50.548;8.778;2022-09-09T03:58:44;5.9;;;2.2;;
51491;SDS011;37569;50.548;8.778;2022-09-09T04:03:44;3.7;;;2.1;;
51491;SDS011;37569;50.548;8.778;2022-09-09T04:08:45;3.9;;;2.5;;
51491;SDS011;37569;50.548;8.778;2022-09-09T04:13:46;4.9;;;2.7;;
51491;SDS011;37569;50.548;8.778;2022-09-09T04:18:46;6.9;;;2.7;;
51491;SDS011;37569;50.548;8.778;2022-09-09T04:23:47;4.9;;;2.5;;
51491;SDS011;37569;50.548;8.778;2022-09-09T04:28:47;5;;;2.5;;
51491;SDS011;37569;50.548;8.778;2022-09-09T04:33:48;5.8;;;2.3;;
51491;SDS011;37569;50.548;8.778;2022-09-09T04:38:48;5.3;;;2.7;;
51491;SDS011;37569;50.548;8.778;2022-09-09T04:43:49;4;;;2.3;;
51491;SDS011;37569;50.548;8.778;2022-09-09T04:48:49;6;;;2.9;;
51491;SDS011;37569;50.548;8.778;2022-09-09T04:53:50;7.4;;;3;;
51491;SDS011;37569;50.548;8.778;2022-09-09T04:58:50;5.7;;;3.2;;
51491;SDS011;37569;50.548;8.778;2022-09-09T05:03:51;6.1;;;3.4;;
51491;SDS011;37569;50.548;8.778;2022-09-09T05:08:51;7.1;;;3.6;;
51491;SDS011;37569;50.548;8.778;2022-09-09T05:13:52;8.3;;;3.6;;
51491;SDS011;37569;50.548;8.778;2022-09-09T05:18:52;5.3;;;3.6;;
51491;SDS011;37569;50.548;8.778;2022-09-09T05:23:53;6.2;;;3.6;;
51491;SDS011;37569;50.548;8.778;2022-09-09T05:28:53;7.1;;;3.4;;
51491;SDS011;37569;50.548;8.778;2022-09-09T05:33:54;5.6;;;3.3;;
51491;SDS011;37569;50.548;8.778;2022-09-09T05:38:55;4.4;;;3.4;;
51491;SDS011;37569;50.548;8.778;2022-09-09T05:43:55;5.2;;;3.3;;
51491;SDS011;37569;50.548;8.778;2022-09-09T05:48:56;6;;;3.4;;
51491;SDS011;37569;50.548;8.778;2022-09-09T05:53:56;7.6;;;3.5;;
51491;SDS011;37569;50.548;8.778;2022-09-09T05:58:58;5.8;;;3.6;;
51491;SDS011;37569;50.548;8.778;2022-09-09T06:03:58;7;;;3.7;;
51491;SDS011;37569;50.548;8.778;2022-09-09T06:08:58;8;;;3.2;;
51491;SDS011;37569;50.548;8.778;2022-09-09T06:13:59;5.8;;;3;;
51491;SDS011;37569;50.548;8.778;2022-09-09T06:19:00;6.3;;;3;;
51491;SDS011;37569;50.548;8.778;2022-09-09T06:24:00;6.6;;;2.9;;
51491;SDS011;37569;50.548;8.778;2022-09-09T06:29:02;5.8;;;2.6;;
51491;SDS011;37569;50.548;8.778;2022-09-09T06:34:03;6.4;;;2.5;;
51491;SDS011;37569;50.548;8.778;2022-09-09T06:39:02;7.5;;;2.7;;
51491;SDS011;37569;50.548;8.778;2022-09-09T06:44:03;3.7;;;2.2;;
51491;SDS011;37569;50.548;8.778;2022-09-09T06:49:03;3.4;;;1.9;;
51491;SDS011;37569;50.548;8.778;2022-09-09T06:54:04;5.6;;;2.1;;
51491;SDS011;37569;50.548;8.778;2022-09-09T06:59:05;4.2;;;1.9;;
51491;SDS011;37569;50.548;8.778;2022-09-09T07:04:05;5;;;1.8;;
51491;SDS011;37569;50.548;8.778;2022-09-09T07:29:11;4.9;;;1.9;;
51491;SDS011;37569;50.548;8.778;2022-09-09T07:34:11;3.6;;;2;;
51491;SDS011;37569;50.548;8.778;2022-09-09T07:39:12;3.1;;;1.8;;
51491;SDS011;37569;50.548;8.778;2022-09-09T07:44:13;2.8;;;1.6;;
51491;SDS011;37569;50.548;8.778;2022-09-09T07:49:13;5.7;;;2.1;;
51491;SDS011;37569;50.548;8.778;2022-09-09T07:54:15;5.8;;;2;;
51491;SDS011;37569;50.548;8.778;2022-09-09T07:59:15;5.6;;;2.2;;
51491;SDS011;37569;50.548;8.778;2022-09-09T08:04:16;3.5;;;2;;
51491;SDS011;37569;50.548;8.778;2022-09-09T08:09:16;3.9;;;2.2;;
51491;SDS011;37569;50.548;8.778;2022-09-09T08:14:17;7.5;;;2.6;;
51491;SDS011;37569;50.548;8.778;2022-09-09T08:19:18;5.5;;;2.2;;
51491;SDS011;37569;50.548;8.778;2022-09-09T08:24:18;5.6;;;2.3;;
51491;SDS011;37569;50.548;8.778;2022-09-09T08:29:19;4.3;;;2.5;;
51491;SDS011;37569;50.548;8.778;2022-09-09T08:34:20;4.2;;;2.2;;
51491;SDS011;37569;50.548;8.778;2022-09-09T08:39:21;5.2;;;2.4;;
51491;SDS011;37569;50.548;8.778;2022-09-09T08:44:23;4.6;;;2.2;;
51491;SDS011;37569;50.548;8.778;2022-09-09T08:49:25;5.1;;;2.3;;
51491;SDS011;37569;50.548;8.778;2022-09-09T08:54:23;3.8;;;2.1;;
51491;SDS011;37569;50.548;8.778;2022-09-09T08:59:24;6;;;2;;
51491;SDS011;37569;50.548;8.778;2022-09-09T09:04:29;6.8;;;2.2;;
51491;SDS011;37569;50.548;8.778;2022-09-09T09:09:26;4.7;;;2.2;;
51491;SDS011;37569;50.548;8.778;2022-09-09T09:14:28;4.7;;;2.2;;
51491;SDS011;37569;50.548;8.778;2022-09-09T09:19:28;4;;;1.9;;
51491;SDS011;37569;50.548;8.778;2022-09-09T09:24:30;6.2;;;2.1;;
51491;SDS011;37569;50.548;8.778;2022-09-09T09:29:29;4.2;;;2.3;;
51491;SDS011;37569;50.548;8.778;2022-09-09T09:34:30;4.3;;;1.7;;
51491;SDS011;37569;50.548;8.778;2022-09-09T09:39:31;4.5;;;1.9;;
51491;SDS011;37569;50.548;8.778;2022-09-09T09:44:32;4.5;;;1.8;;
51491;SDS011;37569;50.548;8.778;2022-09-09T09:49:32;4.8;;;2;;
51491;SDS011;37569;50.548;8.778;2022-09-09T09:54:34;5.5;;;2.1;;
51491;SDS011;37569;50.548;8.778;2022-09-09T09:59:35;3.9;;;1.8;;
51491;SDS011;37569;50.548;8.778;2022-09-09T10:04:35;7.2;;;2.2;;
51491;SDS011;37569;50.548;8.778;2022-09-09T10:09:36;4.5;;;1.8;;
51491;SDS011;37569;50.548;8.778;2022-09-09T10:14:38;3;;;1.7;;
51491;SDS011;37569;50.548;8.778;2022-09-09T10:19:38;4.6;;;1.4;;
51491;SDS011;37569;50.548;8.778;2022-09-09T10:25:48;2.7;;;1.3;;
51491;SDS011;37569;50.548;8.778;2022-09-09T10:29:47;3.8;;;1.7;;
51491;SDS011;37569;50.548;8.778;2022-09-09T10:34:45;4.2;;;1.7;;
51491;SDS011;37569;50.548;8.778;2022-09-09T10:39:41;4.2;;;1.6;;
51491;SDS011;37569;50.548;8.778;2022-09-09T10:44:46;5.2;;;1.8;;
51491;SDS011;37569;50.548;8.778;2022-09-09T10:49:49;4.1;;;1.9;;
51491;SDS011;37569;50.548;8.778;2022-09-09T10:54:47;4.2;;;1.7;;
51491;SDS011;37569;50.548;8.778;2022-09-09T10:59:46;3.2;;;1.4;;
51491;SDS011;37569;50.548;8.778;2022-09-09T11:04:48;3.3;;;1.7;;
51491;SDS011;37569;50.548;8.778;2022-09-09T11:09:47;3.8;;;1.7;;
51491;SDS011;37569;50.548;8.778;2022-09-09T11:14:48;4.9;;;2.2;;
51491;SDS011;37569;50.548;8.778;2022-09-09T11:19:48;3.7;;;1.9;;
51491;SDS011;37569;50.548;8.778;2022-09-09T11:24:50;4.2;;;1.4;;
51491;SDS011;37569;50.548;8.778;2022-09-09T11:29:55;4.1;;;1.9;;
51491;SDS011;37569;50.548;8.778;2022-09-09T11:34:53;4.1;;;1.8;;
51491;SDS011;37569;50.548;8.778;2022-09-09T11:40:03;5.2;;;2.3;;
51491;SDS011;37569;50.548;8.778;2022-09-09T11:44:52;4.2;;;2;;
51491;SDS011;37569;50.548;8.778;2022-09-09T11:49:53;4.2;;;1.9;;
51491;SDS011;37569;50.548;8.778;2022-09-09T11:54:54;4.3;;;1.9;;
51491;SDS011;37569;50.548;8.778;2022-09-09T11:59:55;4.1;;;1.8;;
51491;SDS011;37569;50.548;8.778;2022-09-09T12:04:57;5.3;;;1.9;;
51491;SDS011;37569;50.548;8.778;2022-09-09T12:09:58;5.1;;;1.9;;
51491;SDS011;37569;50.548;8.778;2022-09-09T12:15:00;6.5;;;2.5;;
51491;SDS011;37569;50.548;8.778;2022-09-09T12:20:00;4.3;;;2.1;;
51491;SDS011;37569;50.548;8.778;2022-09-09T12:25:00;4.9;;;2.2;;
51491;SDS011;37569;50.548;8.778;2022-09-09T12:30:01;4.3;;;2.2;;
51491;SDS011;37569;50.548;8.778;2022-09-09T12:35:02;5.4;;;2.7;;
51491;SDS011;37569;50.548;8.778;2022-09-09T12:40:02;4.7;;;2.5;;
51491;SDS011;37569;50.548;8.778;2022-09-09T12:45:14;5.4;;;2.5;;
51491;SDS011;37569;50.548;8.778;2022-09-09T12:50:04;6.3;;;2.7;;
51491;SDS011;37569;50.548;8.778;2022-09-09T12:55:04;5.9;;;2.3;;
51491;SDS011;37569;50.548;8.778;2022-09-09T13:00:07;4.7;;;2.1;;
51491;SDS011;37569;50.548;8.778;2022-09-09T13:05:07;6.5;;;2.5;;
51491;SDS011;37569;50.548;8.778;2022-09-09T13:10:10;5;;;2.3;;
51491;SDS011;37569;50.548;8.778;2022-09-09T13:15:10;6.7;;;2.3;;
51491;SDS011;37569;50.548;8.778;2022-09-09T13:20:14;6.6;;;2.1;;
51491;SDS011;37569;50.548;8.778;2022-09-09T13:25:17;5.6;;;2;;
51491;SDS011;37569;50.548;8.778;2022-09-09T13:30:19;3.5;;;1.6;;
51491;SDS011;37569;50.548;8.778;2022-09-09T13:35:21;4.2;;;1.6;;
51491;SDS011;37569;50.548;8.778;2022-09-09T13:40:14;4.5;;;1.4;;
51491;SDS011;37569;50.548;8.778;2022-09-09T13:45:14;4.3;;;1.7;;
51491;SDS011;37569;50.548;8.778;2022-09-09T13:50:18;4.3;;;1.4;;
51491;SDS011;37569;50.548;8.778;2022-09-09T13:55:14;6.7;;;1.8;;
51491;SDS011;37569;50.548;8.778;2022-09-09T14:00:15;3.8;;;1.4;;
51491;SDS011;37569;50.548;8.778;2022-09-09T14:05:16;4.2;;;1.5;;
51491;SDS011;37569;50.548;8.778;2022-09-09T14:10:17;4;;;1.3;;
51491;SDS011;37569;50.548;8.778;2022-09-09T14:15:17;2.8;;;1.4;;
51491;SDS011;37569;50.548;8.778;2022-09-09T14:20:18;4.6;;;1.4;;
51491;SDS011;37569;50.548;8.778;2022-09-09T14:25:19;3.4;;;1.4;;
51491;SDS011;37569;50.548;8.778;2022-09-09T14:30:20;3.3;;;1.2;;
51491;SDS011;37569;50.548;8.778;2022-09-09T14:35:21;2.3;;;1.3;;
51491;SDS011;37569;50.548;8.778;2022-09-09T14:40:22;3.4;;;1.2;;
51491;SDS011;37569;50.548;8.778;2022-09-09T14:45:23;2.4;;;1.1;;
51491;SDS011;37569;50.548;8.778;2022-09-09T14:50:23;3.5;;;1.2;;
51491;SDS011;37569;50.548;8.778;2022-09-09T14:55:24;3.8;;;1.2;;
51491;SDS011;37569;50.548;8.778;2022-09-09T15:00:25;2.8;;;1.3;;
51491;SDS011;37569;50.548;8.778;2022-09-09T15:05:26;3.4;;;1.3;;
51491;SDS011;37569;50.548;8.778;2022-09-09T15:10:27;2.9;;;1.2;;
51491;SDS011;37569;50.548;8.778;2022-09-09T15:15:28;4.4;;;1.3;;
51491;SDS011;37569;50.548;8.778;2022-09-09T15:20:28;4.2;;;1.3;;
51491;SDS011;37569;50.548;8.778;2022-09-09T15:25:29;2.1;;;1.2;;
51491;SDS011;37569;50.548;8.778;2022-09-09T15:30:30;3.6;;;1.2;;
51491;SDS011;37569;50.548;8.778;2022-09-09T15:35:31;3.8;;;1.1;;
51491;SDS011;37569;50.548;8.778;2022-09-09T15:40:32;2.5;;;1.1;;
51491;SDS011;37569;50.548;8.778;2022-09-09T15:45:33;2.6;;;1.3;;
51491;SDS011;37569;50.548;8.778;2022-09-09T15:50:33;2.5;;;1.2;;
51491;SDS011;37569;50.548;8.778;2022-09-09T15:55:34;2.4;;;1.2;;
51491;SDS011;37569;50.548;8.778;2022-09-09T16:00:35;2.8;;;1.1;;
51491;SDS011;37569;50.548;8.778;2022-09-09T16:05:36;3.6;;;1.1;;
51491;SDS011;37569;50.548;8.778;2022-09-09T16:10:37;2.1;;;1;;
51491;SDS011;37569;50.548;8.778;2022-09-09T16:15:37;3.4;;;1.1;;
51491;SDS011;37569;50.548;8.778;2022-09-09T16:20:38;2;;;1;;
51491;SDS011;37569;50.548;8.778;2022-09-09T16:25:39;2.9;;;1.3;;
51491;SDS011;37569;50.548;8.778;2022-09-09T16:30:40;2;;;0.9;;
51491;SDS011;37569;50.548;8.778;2022-09-09T16:35:41;3.5;;;1.1;;
51491;SDS011;37569;50.548;8.778;2022-09-09T16:40:42;1.7;;;1;;
51491;SDS011;37569;50.548;8.778;2022-09-09T16:45:42;2;;;1.1;;
51491;SDS011;37569;50.548;8.778;2022-09-09T16:50:43;2.9;;;1.4;;
51491;SDS011;37569;50.548;8.778;2022-09-09T16:55:44;4.1;;;1.2;;
51491;SDS011;37569;50.548;8.778;2022-09-09T17:00:45;2.4;;;1;;
51491;SDS011;37569;50.548;8.778;2022-09-09T17:05:45;2.9;;;1.3;;
51491;SDS011;37569;50.548;8.778;2022-09-09T17:10:46;2.4;;;1.3;;
51491;SDS011;37569;50.548;8.778;2022-09-09T17:15:47;2.6;;;1.1;;
51491;SDS011;37569;50.548;8.778;2022-09-09T17:20:47;4.3;;;1.5;;
51491;SDS011;37569;50.548;8.778;2022-09-09T17:25:55;2.3;;;1.1;;
51491;SDS011;37569;50.548;8.778;2022-09-09T17:30:51;3.3;;;1.4;;
51491;SDS011;37569;50.548;8.778;2022-09-09T17:35:50;3;;;1.2;;
51491;SDS011;37569;50.548;8.778;2022-09-09T17:40:50;3.6;;;1.4;;
51491;SDS011;37569;50.548;8.778;2022-09-09T17:45:51;3.2;;;1.2;;
51491;SDS011;37569;50.548;8.778;2022-09-09T17:50:56;4.4;;;1.3;;
51491;SDS011;37569;50.548;8.778;2022-09-09T17:55:53;5.1;;;1.5;;
51491;SDS011;37569;50.548;8.778;2022-09-09T18:00:53;3.9;;;1.2;;
51491;SDS011;37569;50.548;8.778;2022-09-09T18:05:58;3.5;;;1.2;;
51491;SDS011;37569;50.548;8.778;2022-09-09T18:10:55;1.7;;;1;;
51491;SDS011;37569;50.548;8.778;2022-09-09T18:15:56;2.4;;;1.1;;
51491;SDS011;37569;50.548;8.778;2022-09-09T18:20:57;2.9;;;1.4;;
51491;SDS011;37569;50.548;8.778;2022-09-09T18:25:57;5.1;;;1.4;;
51491;SDS011;37569;50.548;8.778;2022-09-09T18:30:58;3.1;;;1.3;;
51491;SDS011;37569;50.548;8.778;2022-09-09T18:36:02;2.6;;;1.2;;
51491;SDS011;37569;50.548;8.778;2022-09-09T18:40:59;3.3;;;1.3;;
51491;SDS011;37569;50.548;8.778;2022-09-09T18:46:02;2.6;;;1.3;;
51491;SDS011;37569;50.548;8.778;2022-09-09T18:51:01;2.5;;;1.5;;
51491;SDS011;37569;50.548;8.778;2022-09-09T18:56:03;3.2;;;1.4;;
51491;SDS011;37569;50.548;8.778;2022-09-09T19:01:02;4;;;1.3;;
51491;SDS011;37569;50.548;8.778;2022-09-09T19:06:03;3.3;;;1.4;;
51491;SDS011;37569;50.548;8.778;2022-09-09T19:11:04;3.2;;;1.2;;
51491;SDS011;37569;50.548;8.778;2022-09-09T19:16:04;2.7;;;1.2;;
51491;SDS011;37569;50.548;8.778;2022-09-09T19:21:08;3.1;;;1.3;;
51491;SDS011;37569;50.548;8.778;2022-09-09T19:26:06;4.3;;;1.4;;
51491;SDS011;37569;50.548;8.778;2022-09-09T19:31:07;3.7;;;1.3;;
51491;SDS011;37569;50.548;8.778;2022-09-09T19:36:07;2.2;;;1.4;;
51491;SDS011;37569;50.548;8.778;2022-09-09T19:41:08;2.6;;;1.3;;
51491;SDS011;37569;50.548;8.778;2022-09-09T19:46:08;3.6;;;1.3;;
51491;SDS011;37569;50.548;8.778;2022-09-09T19:51:09;3.5;;;1.4;;
51491;SDS011;37569;50.548;8.778;2022-09-09T19:56:10;3.7;;;1.6;;
51491;SDS011;37569;50.548;8.778;2022-09-09T20:01:11;3.7;;;1.4;;
51491;SDS011;37569;50.548;8.778;2022-09-09T20:06:12;2.6;;;1.3;;
51491;SDS011;37569;50.548;8.778;2022-09-09T20:11:12;2.8;;;1.4;;
51491;SDS011;37569;50.548;8.778;2022-09-09T20:16:13;2.5;;;1.3;;
51491;SDS011;37569;50.548;8.778;2022-09-09T20:21:14;2.2;;;1.3;;
51491;SDS011;37569;50.548;8.778;2022-09-09T20:26:15;1.5;;;1;;
51491;SDS011;37569;50.548;8.778;2022-09-09T20:31:15;1.8;;;1.1;;
51491;SDS011;37569;50.548;8.778;2022-09-09T20:36:16;2;;;1.1;;
51491;SDS011;37569;50.548;8.778;2022-09-09T20:41:16;2.2;;;1.2;;
51491;SDS011;37569;50.548;8.778;2022-09-09T20:46:16;2;;;1.1;;
51491;SDS011;37569;50.548;8.778;2022-09-09T20:51:17;2.6;;;1.3;;
51491;SDS011;37569;50.548;8.778;2022-09-09T20:56:17;2;;;1.2;;
51491;SDS011;37569;50.548;8.778;2022-09-09T21:01:18;2.5;;;1.2;;
51491;SDS011;37569;50.548;8.778;2022-09-09T21:06:19;2.9;;;1.3;;
51491;SDS011;37569;50.548;8.778;2022-09-09T21:11:19;3.8;;;1.3;;
51491;SDS011;37569;50.548;8.778;2022-09-09T21:16:20;1.8;;;1.1;;
51491;SDS011;37569;50.548;8.778;2022-09-09T21:21:20;2.6;;;1;;
51491;SDS011;37569;50.548;8.778;2022-09-09T21:26:21;3.8;;;1.2;;
51491;SDS011;37569;50.548;8.778;2022-09-09T21:31:22;2.3;;;1.2;;
51491;SDS011;37569;50.548;8.778;2022-09-09T21:36:22;3.1;;;1.3;;
51491;SDS011;37569;50.548;8.778;2022-09-09T21:41:23;3;;;1.2;;
51491;SDS011;37569;50.548;8.778;2022-09-09T21:46:23;3.3;;;1.4;;
51491;SDS011;37569;50.548;8.778;2022-09-09T21:51:24;3.5;;;1.3;;
51491;SDS011;37569;50.548;8.778;2022-09-09T21:56:24;2.2;;;1.3;;
51491;SDS011;37569;50.548;8.778;2022-09-09T22:01:25;4.7;;;1.5;;
51491;SDS011;37569;50.548;8.778;2022-09-09T22:06:25;2.1;;;1.1;;
51491;SDS011;37569;50.548;8.778;2022-09-09T22:11:26;2.3;;;1.2;;
51491;SDS011;37569;50.548;8.778;2022-09-09T22:16:27;1.6;;;1;;
51491;SDS011;37569;50.548;8.778;2022-09-09T22:21:29;1.7;;;1.1;;
51491;SDS011;37569;50.548;8.778;2022-09-09T22:26:29;3;;;1.3;;
51491;SDS011;37569;50.548;8.778;2022-09-09T22:31:28;2.3;;;1.3;;
51491;SDS011;37569;50.548;8.778;2022-09-09T22:36:29;2.4;;;1.2;;
51491;SDS011;37569;50.548;8.778;2022-09-09T22:41:30;2.5;;;1.4;;
51491;SDS011;37569;50.548;8.778;2022-09-09T22:46:30;1.6;;;1.1;;
51491;SDS011;37569;50.548;8.778;2022-09-09T22:51:31;2.1;;;1.1;;
51491;SDS011;37569;50.548;8.778;2022-09-09T22:56:31;4.1;;;1.1;;
51491;SDS011;37569;50.548;8.778;2022-09-09T23:01:32;3.2;;;1.3;;
51491;SDS011;37569;50.548;8.778;2022-09-09T23:06:32;3.1;;;1.4;;
51491;SDS011;37569;50.548;8.778;2022-09-09T23:11:34;2.1;;;1.3;;
51491;SDS011;37569;50.548;8.778;2022-09-09T23:16:34;2.1;;;1.4;;
51491;SDS011;37569;50.548;8.778;2022-09-09T23:21:35;3.6;;;1.6;;
51491;SDS011;37569;50.548;8.778;2022-09-09T23:26:35;3.4;;;1.5;;
51491;SDS011;37569;50.548;8.778;2022-09-09T23:31:35;2.9;;;1.4;;
51491;SDS011;37569;50.548;8.778;2022-09-09T23:36:36;4.9;;;1.5;;
51491;SDS011;37569;50.548;8.778;2022-09-09T23:41:36;3;;;1.6;;
51491;SDS011;37569;50.548;8.778;2022-09-09T23:46:37;2.5;;;1.6;;
51491;SDS011;37569;50.548;8.778;2022-09-09T23:51:37;3.2;;;1.5;;
51491;SDS011;37569;50.548;8.778;2022-09-09T23:56:38;3.6;;;1.8;;
